Time,TemperatureF,DewpointF,PressureIn,WindDirection,WindDirectionDegrees,WindSpeedMPH,WindSpeedGustMPH,Humidity,HourlyPrecipIn,Conditions,Clouds,dailyrainin,SoftwareType,DateUTC
2013-05-25 00:02:00,50.0,-99.9,30.11,ESE,103,4.0,5.0,-999,-99.99,,,-99.99,,2013-05-25 07:02:00,
2013-05-25 00:11:00,50.0,-99.9,30.11,SE,129,3.0,4.0,-999,-99.99,,,-99.99,,2013-05-25 07:11:00,
2013-05-25 00:22:00,50.0,-99.9,30.11,SE,133,3.0,4.0,-999,-99.99,,,-99.99,,2013-05-25 07:22:00,
2013-05-25 00:32:00,50.0,-99.9,30.11,East,82,5.0,6.0,-999,-99.99,,,-99.99,,2013-05-25 07:32:00,
2013-05-25 00:42:00,50.0,-99.9,30.11,East,91,5.0,6.0,-999,-99.99,,,-99.99,,2013-05-25 07:42:00,
2013-05-25 00:52:00,50.0,-99.9,30.11,East,90,4.0,6.0,-999,-99.99,,,-99.99,,2013-05-25 07:52:00,
2013-05-25 01:02:00,49.0,-99.9,30.10,East,96,4.0,4.0,-999,-99.99,,,-99.99,,2013-05-25 08:02:00,
2013-05-25 01:11:00,49.0,-99.9,30.10,ESE,103,4.0,4.0,-999,-99.99,,,-99.99,,2013-05-25 08:11:00,
2013-05-25 01:23:00,49.0,-99.9,30.10,East,97,2.0,4.0,-999,-99.99,,,-99.99,,2013-05-25 08:23:00,
2013-05-25 01:32:00,50.0,-99.9,30.10,East,91,4.0,5.0,-999,-99.99,,,-99.99,,2013-05-25 08:32:00,
2013-05-25 01:42:00,49.0,-99.9,30.10,ESE,112,5.0,6.0,-999,-99.99,,,-99.99,,2013-05-25 08:42:00,
2013-05-25 01:52:00,49.0,-99.9,30.10,SE,128,4.0,6.0,-999,-99.99,,,-99.99,,2013-05-25 08:52:00,
2013-05-25 02:02:00,49.0,-99.9,30.09,SE,128,3.0,4.0,-999,-99.99,,,-99.99,,2013-05-25 09:02:00,
2013-05-25 02:11:00,49.0,-99.9,30.09,ESE,114,3.0,4.0,-999,-99.99,,,-99.99,,2013-05-25 09:11:00,
2013-05-25 02:22:00,49.0,-99.9,30.09,ESE,114,4.0,5.0,-999,-99.99,,,-99.99,,2013-05-25 09:22:00,
2013-05-25 02:33:00,49.0,-99.9,30.09,ESE,107,4.0,5.0,-999,-99.99,,,-99.99,,2013-05-25 09:33:00,
2013-05-25 02:43:00,49.0,-99.9,30.09,ESE,102,4.0,4.0,-999,-99.99,,,-99.99,,2013-05-25 09:43:00,
2013-05-25 02:53:00,49.0,-99.9,30.09,ESE,112,6.0,6.0,-999,-99.99,,,-99.99,,2013-05-25 09:53:00,
2013-05-25 03:03:00,49.0,-99.9,30.08,East,94,6.0,7.0,-999,-99.99,,,-99.99,,2013-05-25 10:03:00,
2013-05-25 03:13:00,49.0,-99.9,30.08,ESE,107,6.0,8.0,-999,-99.99,,,-99.99,,2013-05-25 10:13:00,
2013-05-25 03:23:00,49.0,-99.9,30.08,ESE,113,5.0,6.0,-999,-99.99,,,-99.99,,2013-05-25 10:23:00,
2013-05-25 03:33:00,49.0,-99.9,30.08,ESE,118,6.0,6.0,-999,-99.99,,,-99.99,,2013-05-25 10:33:00,
2013-05-25 03:42:00,49.0,-99.9,30.08,SE,127,5.0,6.0,-999,-99.99,,,-99.99,,2013-05-25 10:42:00,
2013-05-25 03:52:00,48.0,-99.9,30.08,ESE,115,5.0,6.0,-999,-99.99,,,-99.99,,2013-05-25 10:52:00,
2013-05-25 04:03:00,48.0,-99.9,30.08,ESE,102,4.0,5.0,-999,-99.99,,,-99.99,,2013-05-25 11:03:00,
2013-05-25 04:12:00,48.0,-99.9,30.08,East,95,4.0,5.0,-999,-99.99,,,-99.99,,2013-05-25 11:12:00,
2013-05-25 04:22:00,48.0,-99.9,30.08,ESE,109,5.0,6.0,-999,-99.99,,,-99.99,,2013-05-25 11:22:00,
2013-05-25 04:32:00,48.0,-99.9,30.08,ESE,114,6.0,7.0,-999,-99.99,,,-99.99,,2013-05-25 11:32:00,
2013-05-25 04:42:00,48.0,-99.9,30.08,ESE,110,6.0,7.0,-999,-99.99,,,-99.99,,2013-05-25 11:42:00,
2013-05-25 04:52:00,48.0,-99.9,30.07,ESE,120,5.0,6.0,-999,-99.99,,,-99.99,,2013-05-25 11:52:00,
2013-05-25 05:02:00,49.0,-99.9,30.07,SE,135,4.0,7.0,-999,-99.99,,,-99.99,,2013-05-25 12:02:00,
2013-05-25 05:12:00,49.0,-99.9,30.07,ESE,119,7.0,7.0,-999,-99.99,,,-99.99,,2013-05-25 12:12:00,
2013-05-25 05:22:00,48.0,-99.9,30.07,ESE,118,6.0,7.0,-999,-99.99,,,-99.99,,2013-05-25 12:22:00,
2013-05-25 05:32:00,48.0,-99.9,30.07,ESE,110,6.0,7.0,-999,-99.99,,,-99.99,,2013-05-25 12:32:00,
2013-05-25 05:42:00,49.0,-99.9,30.07,ESE,120,6.0,7.0,-999,-99.99,,,-99.99,,2013-05-25 12:42:00,
2013-05-25 05:52:00,49.0,-99.9,30.07,ESE,104,6.0,7.0,-999,-99.99,,,-99.99,,2013-05-25 12:52:00,
2013-05-25 06:02:00,48.0,-99.9,30.07,ESE,106,6.0,7.0,-999,-99.99,,,-99.99,,2013-05-25 13:02:00,
2013-05-25 06:11:00,49.0,-99.9,30.07,ESE,112,5.0,8.0,-999,-99.99,,,-99.99,,2013-05-25 13:11:00,
2013-05-25 06:22:00,48.0,-99.9,30.07,ESE,104,4.0,5.0,-999,-99.99,,,-99.99,,2013-05-25 13:22:00,
2013-05-25 06:32:00,49.0,-99.9,30.07,ESE,112,4.0,6.0,-999,-99.99,,,-99.99,,2013-05-25 13:32:00,
2013-05-25 06:42:00,48.0,-99.9,30.07,East,101,5.0,6.0,-999,-99.99,,,-99.99,,2013-05-25 13:42:00,
2013-05-25 06:52:00,49.0,-99.9,30.06,ESE,110,5.0,7.0,-999,-99.99,,,-99.99,,2013-05-25 13:52:00,
2013-05-25 07:02:00,49.0,-99.9,30.06,East,92,6.0,8.0,-999,-99.99,,,-99.99,,2013-05-25 14:02:00,
2013-05-25 07:11:00,49.0,-99.9,30.06,East,88,5.0,7.0,-999,-99.99,,,-99.99,,2013-05-25 14:11:00,
2013-05-25 07:22:00,49.0,-99.9,30.07,East,95,4.0,6.0,-999,-99.99,,,-99.99,,2013-05-25 14:22:00,
2013-05-25 07:32:00,49.0,-99.9,30.07,ESE,120,6.0,8.0,-999,-99.99,,,-99.99,,2013-05-25 14:32:00,
2013-05-25 07:42:00,49.0,-99.9,30.07,ESE,103,5.0,7.0,-999,-99.99,,,-99.99,,2013-05-25 14:42:00,
2013-05-25 07:52:00,49.0,-99.9,30.07,East,86,4.0,7.0,-999,-99.99,,,-99.99,,2013-05-25 14:52:00,
2013-05-25 08:02:00,50.0,-99.9,30.07,East,95,3.0,6.0,-999,-99.99,,,-99.99,,2013-05-25 15:02:00,
2013-05-25 08:12:00,50.0,-99.9,30.07,ESE,102,6.0,8.0,-999,-99.99,,,-99.99,,2013-05-25 15:12:00,
2013-05-25 08:22:00,49.0,-99.9,30.07,ESE,107,6.0,8.0,-999,-99.99,,,-99.99,,2013-05-25 15:22:00,
2013-05-25 08:33:00,50.0,-99.9,30.07,ESE,106,4.0,7.0,-999,-99.99,,,-99.99,,2013-05-25 15:33:00,
2013-05-25 08:43:00,50.0,-99.9,30.07,East,97,5.0,6.0,-999,-99.99,,,-99.99,,2013-05-25 15:43:00,
2013-05-25 08:53:00,50.0,-99.9,30.07,ESE,117,5.0,6.0,-999,-99.99,,,-99.99,,2013-05-25 15:53:00,
2013-05-25 09:03:00,51.0,-99.9,30.07,ESE,117,5.0,6.0,-999,-99.99,,,-99.99,,2013-05-25 16:03:00,
2013-05-25 09:12:00,51.0,-99.9,30.07,ESE,111,6.0,8.0,-999,-99.99,,,-99.99,,2013-05-25 16:12:00,
2013-05-25 09:23:00,51.0,-99.9,30.07,ESE,110,6.0,8.0,-999,-99.99,,,-99.99,,2013-05-25 16:23:00,
2013-05-25 09:33:00,51.0,-99.9,30.07,ESE,121,7.0,9.0,-999,-99.99,,,-99.99,,2013-05-25 16:33:00,
2013-05-25 09:42:00,52.0,-99.9,30.07,SE,144,6.0,9.0,-999,-99.99,,,-99.99,,2013-05-25 16:42:00,
2013-05-25 09:52:00,52.0,-99.9,30.07,SSE,152,6.0,9.0,-999,-99.99,,,-99.99,,2013-05-25 16:52:00,
2013-05-25 10:03:00,53.0,-99.9,30.06,SSE,155,7.0,13.0,-999,-99.99,,,-99.99,,2013-05-25 17:03:00,
2013-05-25 10:11:00,53.0,-99.9,30.06,South,170,6.0,12.0,-999,-99.99,,,-99.99,,2013-05-25 17:11:00,
2013-05-25 10:22:00,53.0,-99.9,30.06,SSE,148,8.0,11.0,-999,-99.99,,,-99.99,,2013-05-25 17:22:00,
2013-05-25 10:33:00,54.0,-99.9,30.06,South,180,8.0,11.0,-999,-99.99,,,-99.99,,2013-05-25 17:33:00,
2013-05-25 10:42:00,54.0,-99.9,30.06,South,184,7.0,12.0,-999,-99.99,,,-99.99,,2013-05-25 17:42:00,
2013-05-25 10:52:00,53.0,-99.9,30.06,WSW,237,7.0,10.0,-999,-99.99,,,-99.99,,2013-05-25 17:52:00,
2013-05-25 11:02:00,53.0,-99.9,30.06,SW,216,9.0,12.0,-999,-99.99,,,-99.99,,2013-05-25 18:02:00,
2013-05-25 11:12:00,53.0,-99.9,30.06,SSW,211,9.0,12.0,-999,-99.99,,,-99.99,,2013-05-25 18:12:00,
2013-05-25 11:22:00,53.0,-99.9,30.06,SSW,211,9.0,12.0,-999,-99.99,,,-99.99,,2013-05-25 18:22:00,
2013-05-25 11:32:00,53.0,-99.9,30.06,SSW,211,9.0,12.0,-999,-99.99,,,-99.99,,2013-05-25 18:32:00,
2013-05-25 11:52:00,54.0,-99.9,30.05,WSW,241,8.0,12.0,-999,-99.99,,,-99.99,,2013-05-25 18:52:00,
2013-05-25 12:02:00,54.0,-99.9,30.05,WSW,237,12.0,15.0,-999,-99.99,,,-99.99,,2013-05-25 19:02:00,
2013-05-25 12:11:00,54.0,-99.9,30.05,WSW,241,11.0,16.0,-999,-99.99,,,-99.99,,2013-05-25 19:11:00,
2013-05-25 12:22:00,54.0,-99.9,30.05,SW,236,12.0,16.0,-999,-99.99,,,-99.99,,2013-05-25 19:22:00,
2013-05-25 12:32:00,54.0,-99.9,30.06,WSW,239,13.0,17.0,-999,-99.99,,,-99.99,,2013-05-25 19:32:00,
2013-05-25 12:42:00,55.0,-99.9,30.05,SW,235,10.0,15.0,-999,-99.99,,,-99.99,,2013-05-25 19:42:00,
2013-05-25 12:52:00,54.0,-99.9,30.05,SW,235,11.0,14.0,-999,-99.99,,,-99.99,,2013-05-25 19:52:00,
2013-05-25 13:02:00,54.0,-99.9,30.05,SW,231,11.0,15.0,-999,-99.99,,,-99.99,,2013-05-25 20:02:00,
2013-05-25 13:11:00,55.0,-99.9,30.05,SW,227,12.0,15.0,-999,-99.99,,,-99.99,,2013-05-25 20:11:00,
2013-05-25 13:22:00,55.0,-99.9,30.05,SW,236,11.0,15.0,-999,-99.99,,,-99.99,,2013-05-25 20:22:00,
2013-05-25 13:32:00,54.0,-99.9,30.05,WSW,241,12.0,17.0,-999,-99.99,,,-99.99,,2013-05-25 20:32:00,
2013-05-25 13:42:00,54.0,-99.9,30.05,WSW,243,12.0,17.0,-999,-99.99,,,-99.99,,2013-05-25 20:42:00,
2013-05-25 13:52:00,54.0,-99.9,30.05,SW,235,13.0,19.0,-999,-99.99,,,-99.99,,2013-05-25 20:52:00,
2013-05-25 14:02:00,55.0,-99.9,30.04,SW,219,12.0,17.0,-999,-99.99,,,-99.99,,2013-05-25 21:02:00,
2013-05-25 14:11:00,54.0,-99.9,30.04,SW,225,14.0,20.0,-999,-99.99,,,-99.99,,2013-05-25 21:11:00,
2013-05-25 14:22:00,55.0,-99.9,30.04,SSW,212,12.0,18.0,-999,-99.99,,,-99.99,,2013-05-25 21:22:00,
2013-05-25 14:33:00,54.0,-99.9,30.04,WSW,239,14.0,18.0,-999,-99.99,,,-99.99,,2013-05-25 21:33:00,
2013-05-25 14:43:00,55.0,-99.9,30.04,SW,219,10.0,18.0,-999,-99.99,,,-99.99,,2013-05-25 21:43:00,
2013-05-25 14:53:00,55.0,-99.9,30.04,SW,214,12.0,17.0,-999,-99.99,,,-99.99,,2013-05-25 21:53:00,
2013-05-25 15:03:00,55.0,-99.9,30.03,WSW,241,11.0,15.0,-999,-99.99,,,-99.99,,2013-05-25 22:03:00,
2013-05-25 15:13:00,55.0,-99.9,30.04,SW,226,11.0,16.0,-999,-99.99,,,-99.99,,2013-05-25 22:13:00,
2013-05-25 15:23:00,55.0,-99.9,30.03,SW,215,11.0,15.0,-999,-99.99,,,-99.99,,2013-05-25 22:23:00,
2013-05-25 15:33:00,55.0,-99.9,30.03,SW,218,10.0,15.0,-999,-99.99,,,-99.99,,2013-05-25 22:33:00,
2013-05-25 15:42:00,55.0,-99.9,30.03,WSW,241,9.0,13.0,-999,-99.99,,,-99.99,,2013-05-25 22:42:00,
2013-05-25 15:52:00,55.0,-99.9,30.03,SW,226,5.0,13.0,-999,-99.99,,,-99.99,,2013-05-25 22:52:00,
2013-05-25 16:02:00,55.0,-99.9,30.03,WSW,237,11.0,13.0,-999,-99.99,,,-99.99,,2013-05-25 23:02:00,
2013-05-25 16:12:00,55.0,-99.9,30.03,SW,235,9.0,14.0,-999,-99.99,,,-99.99,,2013-05-25 23:12:00,
2013-05-25 16:22:00,55.0,-99.9,30.03,SW,236,12.0,15.0,-999,-99.99,,,-99.99,,2013-05-25 23:22:00,
2013-05-25 16:32:00,55.0,-99.9,30.02,SW,227,8.0,14.0,-999,-99.99,,,-99.99,,2013-05-25 23:32:00,
2013-05-25 16:42:00,55.0,-99.9,30.02,SW,217,9.0,12.0,-999,-99.99,,,-99.99,,2013-05-25 23:42:00,
2013-05-25 16:53:00,54.0,-99.9,30.02,WSW,237,9.0,15.0,-999,-99.99,,,-99.99,,2013-05-25 23:53:00,
2013-05-25 17:02:00,55.0,-99.9,30.02,SW,227,8.0,11.0,-999,-99.99,,,-99.99,,2013-05-26 00:02:00,
2013-05-25 17:12:00,56.0,-99.9,30.02,SW,232,6.0,11.0,-999,-99.99,,,-99.99,,2013-05-26 00:12:00,
2013-05-25 17:22:00,55.0,-99.9,30.02,WSW,244,9.0,14.0,-999,-99.99,,,-99.99,,2013-05-26 00:22:00,
2013-05-25 17:32:00,54.0,-99.9,30.02,SW,219,8.0,17.0,-999,-99.99,,,-99.99,,2013-05-26 00:32:00,
2013-05-25 17:43:00,54.0,-99.9,30.01,WSW,239,11.0,16.0,-999,-99.99,,,-99.99,,2013-05-26 00:43:00,
2013-05-25 17:53:00,55.0,-99.9,30.01,SW,230,10.0,15.0,-999,-99.99,,,-99.99,,2013-05-26 00:53:00,
2013-05-25 18:01:00,54.0,-99.9,30.01,SW,214,12.0,15.0,-999,-99.99,,,-99.99,,2013-05-26 01:01:00,
2013-05-25 18:11:00,54.0,-99.9,30.01,SW,227,10.0,16.0,-999,-99.99,,,-99.99,,2013-05-26 01:11:00,
2013-05-25 18:21:00,55.0,-99.9,30.01,SW,236,6.0,16.0,-999,-99.99,,,-99.99,,2013-05-26 01:21:00,
2013-05-25 18:32:00,55.0,-99.9,30.00,SW,218,5.0,10.0,-999,-99.99,,,-99.99,,2013-05-26 01:32:00,
2013-05-25 18:42:00,54.0,-99.9,30.00,SSW,213,6.0,11.0,-999,-99.99,,,-99.99,,2013-05-26 01:42:00,
2013-05-25 18:53:00,54.0,-99.9,30.00,SW,231,10.0,13.0,-999,-99.99,,,-99.99,,2013-05-26 01:53:00,
2013-05-25 19:02:00,54.0,-99.9,30.00,SSW,203,8.0,11.0,-999,-99.99,,,-99.99,,2013-05-26 02:02:00,
2013-05-25 19:11:00,54.0,-99.9,29.99,SW,220,3.0,7.0,-999,-99.99,,,-99.99,,2013-05-26 02:11:00,
2013-05-25 19:22:00,54.0,-99.9,29.99,SSW,198,5.0,7.0,-999,-99.99,,,-99.99,,2013-05-26 02:22:00,
2013-05-25 19:32:00,54.0,-99.9,29.99,SW,220,5.0,10.0,-999,-99.99,,,-99.99,,2013-05-26 02:32:00,
2013-05-25 19:42:00,54.0,-99.9,29.99,SW,233,7.0,11.0,-999,-99.99,,,-99.99,,2013-05-26 02:42:00,
2013-05-25 19:52:00,53.0,-99.9,29.99,SSW,210,8.0,11.0,-999,-99.99,,,-99.99,,2013-05-26 02:52:00,
2013-05-25 20:01:00,54.0,-99.9,29.99,SSW,207,6.0,8.0,-999,-99.99,,,-99.99,,2013-05-26 03:01:00,
2013-05-25 20:11:00,54.0,-99.9,29.99,SSW,209,6.0,8.0,-999,-99.99,,,-99.99,,2013-05-26 03:11:00,
2013-05-25 20:22:00,54.0,-99.9,29.99,SSW,198,5.0,8.0,-999,-99.99,,,-99.99,,2013-05-26 03:22:00,
2013-05-25 20:33:00,54.0,-99.9,29.99,SSW,197,3.0,7.0,-999,-99.99,,,-99.99,,2013-05-26 03:33:00,
2013-05-25 20:43:00,53.0,-99.9,29.98,South,170,5.0,7.0,-999,-99.99,,,-99.99,,2013-05-26 03:43:00,
2013-05-25 20:53:00,53.0,-99.9,29.98,South,176,4.0,6.0,-999,-99.99,,,-99.99,,2013-05-26 03:53:00,
2013-05-25 21:03:00,53.0,-99.9,29.98,South,180,3.0,5.0,-999,-99.99,,,-99.99,,2013-05-26 04:03:00,
2013-05-25 21:13:00,53.0,-99.9,29.98,SSE,148,3.0,5.0,-999,-99.99,,,-99.99,,2013-05-26 04:13:00,
2013-05-25 21:23:00,53.0,-99.9,29.98,SSE,164,6.0,7.0,-999,-99.99,,,-99.99,,2013-05-26 04:23:00,
2013-05-25 21:33:00,53.0,-99.9,29.97,SSE,165,3.0,5.0,-999,-99.99,,,-99.99,,2013-05-26 04:33:00,
2013-05-25 21:43:00,53.0,-99.9,29.97,SSW,209,2.0,3.0,-999,-99.99,,,-99.99,,2013-05-26 04:43:00,
2013-05-25 21:52:00,53.0,-99.9,29.98,SSE,161,2.0,3.0,-999,-99.99,,,-99.99,,2013-05-26 04:52:00,
2013-05-25 22:02:00,53.0,-99.9,29.98,SE,136,1.0,2.0,-999,-99.99,,,-99.99,,2013-05-26 05:02:00,
2013-05-25 22:12:00,53.0,-99.9,29.97,SE,125,2.0,3.0,-999,-99.99,,,-99.99,,2013-05-26 05:12:00,
2013-05-25 22:22:00,53.0,-99.9,29.97,ESE,115,5.0,5.0,-999,-99.99,,,-99.99,,2013-05-26 05:22:00,
2013-05-25 22:32:00,53.0,-99.9,29.97,SE,124,5.0,5.0,-999,-99.99,,,-99.99,,2013-05-26 05:32:00,
2013-05-25 22:42:00,53.0,-99.9,29.97,East,93,4.0,6.0,-999,-99.99,,,-99.99,,2013-05-26 05:42:00,
2013-05-25 22:52:00,52.0,-99.9,29.97,East,94,5.0,6.0,-999,-99.99,,,-99.99,,2013-05-26 05:52:00,
2013-05-25 23:01:00,52.0,-99.9,29.97,ESE,110,7.0,8.0,-999,-99.99,,,-99.99,,2013-05-26 06:01:00,
2013-05-25 23:12:00,52.0,-99.9,29.97,ESE,107,6.0,8.0,-999,-99.99,,,-99.99,,2013-05-26 06:12:00,
2013-05-25 23:22:00,52.0,-99.9,29.97,East,96,6.0,7.0,-999,-99.99,,,-99.99,,2013-05-26 06:22:00,
2013-05-25 23:32:00,52.0,-99.9,29.96,ESE,108,6.0,8.0,-999,-99.99,,,-99.99,,2013-05-26 06:32:00,
2013-05-25 23:42:00,52.0,-99.9,29.96,ESE,107,7.0,8.0,-999,-99.99,,,-99.99,,2013-05-26 06:42:00,
2013-05-25 23:52:00,52.0,-99.9,29.96,ESE,112,7.0,8.0,-999,-99.99,,,-99.99,,2013-05-26 06:52:00,